Time;durP1;ratioP1;P1;durP2;ratioP2;P2;SDS_P1;SDS_P2;PMS_P1;PMS_P2;Temp;Humidity;BMP_temperature;BMP_pressure;BME280_temperature;BME280_humidity;BME280_pressure;Samples;Min_cycle;Max_cycle;Signal;HPM_P1;HPM_P2
2022/12/22 03:26:18;;;;;;;91.03;23.17;;;;;;;;;;5073424;28;20086;-78
2022/12/22 03:28:43;;;;;;;130.20;23.48;;;;;;;;;;5081676;28;20048;-78
2022/12/22 03:31:09;;;;;;;116.28;24.30;;;;;;;;;;5082403;28;20118;-78
2022/12/22 03:33:34;;;;;;;135.23;24.75;;;;;;;;;;5101430;28;20024;-78
2022/12/22 03:36:00;;;;;;;123.85;24.20;;;;;;;;;;5101761;28;20412;-77
2022/12/22 03:38:25;;;;;;;106.60;26.65;;;;;;;;;;5082273;28;20059;-78
2022/12/22 03:40:51;;;;;;;114.78;29.48;;;;;;;;;;5099133;28;20075;-76
2022/12/22 03:48:39;;;;;;;118.85;23.80;;;;;;;;;;5095043;28;20358;-77
2022/12/22 03:51:04;;;;;;;115.57;25.20;;;;;;;;;;5077338;28;20058;-78
2022/12/22 03:53:30;;;;;;;118.57;26.52;;;;;;;;;;5096788;28;20032;-78
2022/12/22 03:55:56;;;;;;;140.00;27.38;;;;;;;;;;5094635;28;20036;-77
2022/12/22 03:58:21;;;;;;;114.85;26.90;;;;;;;;;;5043228;28;20096;-77
2022/12/22 04:00:47;;;;;;;132.27;25.83;;;;;;;;;;5076157;28;20451;-77
2022/12/22 04:03:13;;;;;;;148.48;26.83;;;;;;;;;;5094941;28;20032;-78
2022/12/22 04:05:38;;;;;;;115.53;25.77;;;;;;;;;;5094281;28;20074;-78
2022/12/22 04:08:04;;;;;;;118.80;25.95;;;;;;;;;;5094176;28;20024;-77
2022/12/22 04:13:13;;;;;;;101.32;25.67;;;;;;;;;;5093905;28;20031;-77
2022/12/22 04:15:39;;;;;;;112.25;23.85;;;;;;;;;;5075346;28;20024;-76
2022/12/22 04:18:05;;;;;;;119.07;24.98;;;;;;;;;;5059237;28;20028;-77
2022/12/22 04:20:33;;;;;;;110.90;24.70;;;;;;;;;;5059765;28;20035;-77
2022/12/22 04:22:58;;;;;;;118.50;22.58;;;;;;;;;;5076213;28;20032;-77
2022/12/22 04:25:25;;;;;;;110.18;23.65;;;;;;;;;;5042816;28;20043;-77
2022/12/22 04:27:50;;;;;;;207.40;27.80;;;;;;;;;;5069666;28;20060;-77
2022/12/22 04:30:16;;;;;;;141.73;23.75;;;;;;;;;;5074057;28;20457;-77
2022/12/22 04:32:42;;;;;;;174.52;24.48;;;;;;;;;;5073802;28;20088;-77
2022/12/22 04:35:08;;;;;;;125.47;23.92;;;;;;;;;;5055754;28;20036;-77
2022/12/22 04:37:34;;;;;;;109.47;24.23;;;;;;;;;;5055912;28;20029;-77
2022/12/22 04:39:59;;;;;;;122.40;25.45;;;;;;;;;;5073798;28;20123;-77
2022/12/22 04:42:25;;;;;;;104.10;25.20;;;;;;;;;;5073694;28;20037;-77
2022/12/22 04:44:50;;;;;;;118.22;28.00;;;;;;;;;;5073896;28;20123;-77
2022/12/22 04:47:15;;;;;;;111.10;25.08;;;;;;;;;;5055579;28;20032;-77
2022/12/22 04:49:41;;;;;;;107.07;22.77;;;;;;;;;;5076354;28;20024;-77
2022/12/22 04:52:07;;;;;;;119.35;24.80;;;;;;;;;;5043486;28;20433;-77
2022/12/22 04:54:33;;;;;;;137.70;24.50;;;;;;;;;;5059825;28;20036;-78
2022/12/22 04:56:58;;;;;;;109.10;23.92;;;;;;;;;;5077147;28;20031;-78
2022/12/22 04:59:24;;;;;;;92.05;23.23;;;;;;;;;;5077552;28;20056;-77
2022/12/22 05:01:49;;;;;;;104.85;23.80;;;;;;;;;;5077355;28;20037;-76
2022/12/22 05:04:15;;;;;;;120.32;24.40;;;;;;;;;;5077231;28;20041;-77
2022/12/22 05:06:41;;;;;;;129.65;27.63;;;;;;;;;;5043049;28;20104;-77
2022/12/22 05:09:06;;;;;;;114.85;26.98;;;;;;;;;;5061272;28;20548;-77
2022/12/22 05:11:31;;;;;;;123.70;24.30;;;;;;;;;;5056352;28;20061;-77
2022/12/22 05:13:57;;;;;;;110.88;22.98;;;;;;;;;;5057016;28;20128;-78
2022/12/22 05:16:22;;;;;;;161.32;27.88;;;;;;;;;;5057059;28;20067;-77
2022/12/22 05:18:48;;;;;;;92.97;22.67;;;;;;;;;;5039423;28;20075;-77
2022/12/22 05:21:18;;;;;;;106.22;25.88;;;;;;;;;;5039596;28;20039;-77
2022/12/22 05:23:44;;;;;;;140.35;25.70;;;;;;;;;;5056681;28;20025;-78
2022/12/22 05:26:10;;;;;;;125.90;26.20;;;;;;;;;;5056224;28;20033;-76
2022/12/22 05:28:35;;;;;;;133.65;32.72;;;;;;;;;;5002871;28;20376;-79
2022/12/22 05:31:20;;;;;;;140.35;35.22;;;;;;;;;;5037252;28;20033;-77
2022/12/22 05:33:45;;;;;;;124.93;28.63;;;;;;;;;;5035544;28;20459;-78
2022/12/22 05:36:11;;;;;;;117.20;26.08;;;;;;;;;;5006848;28;20064;-78
2022/12/22 05:38:37;;;;;;;114.57;29.27;;;;;;;;;;5056738;28;20032;-78
2022/12/22 05:41:02;;;;;;;124.95;26.02;;;;;;;;;;5056124;28;20036;-77
2022/12/22 05:43:28;;;;;;;160.73;26.42;;;;;;;;;;5038519;28;20032;-78
2022/12/22 05:45:53;;;;;;;146.95;31.98;;;;;;;;;;5038606;28;20365;-78
2022/12/22 05:48:19;;;;;;;159.68;36.22;;;;;;;;;;5055503;28;20155;-78
2022/12/22 05:50:44;;;;;;;139.82;36.55;;;;;;;;;;5040271;28;20038;-78
2022/12/22 05:53:10;;;;;;;148.40;41.30;;;;;;;;;;5032965;28;20132;-78
2022/12/22 05:55:36;;;;;;;165.15;42.47;;;;;;;;;;5033358;28;20045;-77
2022/12/22 05:58:01;;;;;;;163.52;45.53;;;;;;;;;;5047441;28;20029;-77
2022/12/22 06:00:31;;;;;;;158.82;37.00;;;;;;;;;;5033639;28;20383;-76
2022/12/22 06:02:57;;;;;;;124.80;29.10;;;;;;;;;;5051442;28;20461;-79
2022/12/22 06:08:46;;;;;;;155.40;34.20;;;;;;;;;;5063457;28;20123;-79
2022/12/22 06:11:18;;;;;;;125.57;29.73;;;;;;;;;;5047336;28;20024;-76
2022/12/22 06:13:44;;;;;;;191.00;61.22;;;;;;;;;;5030899;28;20462;-78
2022/12/22 06:16:09;;;;;;;165.98;55.45;;;;;;;;;;5050506;28;20036;-77
2022/12/22 06:18:35;;;;;;;156.45;44.42;;;;;;;;;;5050376;28;20032;-76
2022/12/22 06:21:18;;;;;;;192.43;60.97;;;;;;;;;;5050135;28;20544;-82
2022/12/22 06:23:53;;;;;;;323.15;114.63;;;;;;;;;;5031203;28;20095;-80
2022/12/22 06:26:19;;;;;;;399.25;124.75;;;;;;;;;;5018195;28;20146;-81
2022/12/22 06:28:48;;;;;;;271.15;79.88;;;;;;;;;;5041315;28;20123;-80
2022/12/22 06:31:13;;;;;;;220.93;56.85;;;;;;;;;;5062152;28;20483;-78
2022/12/22 06:33:39;;;;;;;199.95;56.40;;;;;;;;;;5048712;28;20025;-76
2022/12/22 06:36:05;;;;;;;165.95;45.65;;;;;;;;;;5033079;28;20047;-78
2022/12/22 06:38:31;;;;;;;137.73;38.00;;;;;;;;;;5050744;28;20044;-79
2022/12/22 06:40:56;;;;;;;125.75;29.70;;;;;;;;;;5046578;28;20418;-79
2022/12/22 06:43:27;;;;;;;109.78;27.60;;;;;;;;;;5054013;28;20542;-80
2022/12/22 06:46:08;;;;;;;;;;;;;;;;;;5047646;28;20171;-77
2022/12/22 06:48:39;;;;;;;91.75;21.50;;;;;;;;;;5021580;28;19916;-78
2022/12/22 06:51:05;;;;;;;122.45;25.35;;;;;;;;;;5018034;28;20040;-77
2022/12/22 06:53:30;;;;;;;105.95;22.45;;;;;;;;;;5068248;28;20063;-76
2022/12/22 06:55:55;;;;;;;117.22;28.63;;;;;;;;;;5053551;28;20032;-77
2022/12/22 06:58:21;;;;;;;110.25;26.95;;;;;;;;;;5040930;28;20041;-76
2022/12/22 07:00:48;;;;;;;108.13;29.15;;;;;;;;;;5061954;28;20037;-77
2022/12/22 07:03:14;;;;;;;109.65;27.50;;;;;;;;;;5052128;28;20049;-76
2022/12/22 07:05:39;;;;;;;107.38;28.75;;;;;;;;;;5057613;28;20043;-77
2022/12/22 07:08:05;;;;;;;123.03;32.50;;;;;;;;;;5048440;28;20032;-77
2022/12/22 07:13:20;;;;;;;129.13;38.95;;;;;;;;;;5034546;28;20040;-77
2022/12/22 07:15:46;;;;;;;139.98;28.27;;;;;;;;;;5049558;28;20179;-77
2022/12/22 07:18:12;;;;;;;120.95;29.00;;;;;;;;;;5015194;28;20029;-76
2022/12/22 07:20:37;;;;;;;89.85;21.70;;;;;;;;;;5032797;28;20060;-76
2022/12/22 07:23:03;;;;;;;82.32;20.70;;;;;;;;;;5050506;28;20068;-77
2022/12/22 07:25:31;;;;;;;103.45;24.70;;;;;;;;;;5034404;28;20056;-77
2022/12/22 07:27:57;;;;;;;99.45;24.58;;;;;;;;;;5045228;28;20033;-78
2022/12/22 07:30:22;;;;;;;111.55;25.20;;;;;;;;;;5047793;28;20056;-77
2022/12/22 07:32:48;;;;;;;99.80;24.60;;;;;;;;;;5050814;28;20107;-76
2022/12/22 07:35:13;;;;;;;111.90;25.48;;;;;;;;;;5019356;28;20029;-78
2022/12/22 07:37:39;;;;;;;97.68;27.15;;;;;;;;;;5003791;28;20132;-79
2022/12/22 07:40:05;;;;;;;102.75;25.90;;;;;;;;;;5035925;28;20040;-77
2022/12/22 07:42:54;;;;;;;116.88;25.48;;;;;;;;;;5020056;28;20127;-79
2022/12/22 07:45:20;;;;;;;95.88;25.27;;;;;;;;;;5033926;28;20437;-78
2022/12/22 07:47:49;;;;;;;110.32;31.15;;;;;;;;;;5052725;28;20068;-79
2022/12/22 07:50:31;;;;;;;122.60;32.10;;;;;;;;;;5001276;28;20445;-77
2022/12/22 07:53:03;;;;;;;106.65;29.42;;;;;;;;;;5026619;28;20091;-77
2022/12/22 07:55:31;;;;;;;152.55;34.28;;;;;;;;;;5013390;28;20052;-77
2022/12/22 07:57:56;;;;;;;122.80;31.58;;;;;;;;;;5033175;28;20299;-77
2022/12/22 08:00:22;;;;;;;115.38;29.70;;;;;;;;;;5050887;28;20029;-77
2022/12/22 08:02:52;;;;;;;100.72;29.35;;;;;;;;;;5047219;28;20021;-77
2022/12/22 08:05:18;;;;;;;113.88;27.83;;;;;;;;;;5045325;28;20472;-77
2022/12/22 08:07:44;;;;;;;115.82;30.73;;;;;;;;;;5052014;28;20119;-80
2022/12/22 08:10:10;;;;;;;108.47;27.23;;;;;;;;;;5052042;28;20024;-79
2022/12/22 08:12:35;;;;;;;109.22;30.42;;;;;;;;;;5052788;28;20024;-77
2022/12/22 08:15:01;;;;;;;87.88;21.70;;;;;;;;;;5049645;28;20044;-79
2022/12/22 08:17:27;;;;;;;64.07;17.65;;;;;;;;;;5060847;28;20562;-78
2022/12/22 08:19:56;;;;;;;66.78;19.80;;;;;;;;;;5054151;28;20373;-79
2022/12/22 08:22:22;;;;;;;76.88;19.00;;;;;;;;;;5035773;28;20513;-77
2022/12/22 08:24:54;;;;;;;91.80;20.60;;;;;;;;;;5056302;28;20040;-77
2022/12/22 08:27:50;;;;;;;68.05;19.02;;;;;;;;;;5049009;28;20033;-79
2022/12/22 08:30:16;;;;;;;81.72;21.02;;;;;;;;;;5031020;28;20075;-78
2022/12/22 08:32:41;;;;;;;72.65;20.20;;;;;;;;;;5039419;28;20038;-77
2022/12/22 08:35:07;;;;;;;75.43;21.17;;;;;;;;;;5014284;28;20065;-76
2022/12/22 08:37:39;;;;;;;102.53;19.75;;;;;;;;;;5007844;28;20057;-78
2022/12/22 08:40:09;;;;;;;108.80;22.75;;;;;;;;;;5038444;28;20031;-78
2022/12/22 08:42:35;;;;;;;71.90;20.00;;;;;;;;;;5047265;28;20108;-78
2022/12/22 08:45:11;;;;;;;122.03;21.67;;;;;;;;;;5035353;28;20120;-76
2022/12/22 08:47:43;;;;;;;71.40;19.05;;;;;;;;;;5048919;28;20028;-79
2022/12/22 08:50:08;;;;;;;65.40;17.95;;;;;;;;;;5012922;28;20106;-76
2022/12/22 08:52:37;;;;;;;78.03;18.85;;;;;;;;;;5011889;28;20036;-80
2022/12/22 08:55:06;;;;;;;80.45;20.10;;;;;;;;;;5029903;28;20039;-79
2022/12/22 08:57:32;;;;;;;61.85;20.30;;;;;;;;;;5008662;28;20041;-76
2022/12/22 08:59:57;;;;;;;83.07;20.77;;;;;;;;;;5028578;28;20025;-78
2022/12/22 09:02:28;;;;;;;67.43;18.98;;;;;;;;;;5027402;28;20032;-77
2022/12/22 09:04:54;;;;;;;68.28;20.33;;;;;;;;;;5006853;28;20068;-78
2022/12/22 09:07:19;;;;;;;84.88;23.52;;;;;;;;;;5033424;28;20064;-77
2022/12/22 09:09:45;;;;;;;83.63;23.85;;;;;;;;;;5049821;28;20414;-77
2022/12/22 09:12:10;;;;;;;78.25;24.33;;;;;;;;;;5068878;28;20036;-77
2022/12/22 09:14:39;;;;;;;80.60;23.60;;;;;;;;;;5079382;28;20044;-77
2022/12/22 09:17:04;;;;;;;68.70;23.02;;;;;;;;;;5057125;28;20025;-78
2022/12/22 09:19:30;;;;;;;94.80;21.73;;;;;;;;;;5055701;28;20035;-77
2022/12/22 09:21:56;;;;;;;76.50;19.42;;;;;;;;;;5072432;28;20067;-78
2022/12/22 09:24:21;;;;;;;66.00;19.85;;;;;;;;;;5070962;28;20050;-77
2022/12/22 09:26:47;;;;;;;83.65;22.27;;;;;;;;;;5070414;28;20508;-78
2022/12/22 09:29:14;;;;;;;79.00;20.40;;;;;;;;;;5070690;28;20373;-77
2022/12/22 09:31:40;;;;;;;94.93;22.63;;;;;;;;;;5053240;28;20071;-79
2022/12/22 09:34:06;;;;;;;69.20;22.63;;;;;;;;;;5052796;28;20029;-78
2022/12/22 09:36:32;;;;;;;83.45;25.48;;;;;;;;;;5056073;28;20043;-78
2022/12/22 09:38:58;;;;;;;136.75;30.10;;;;;;;;;;5075846;28;20110;-78
2022/12/22 09:41:40;;;;;;;101.82;28.05;;;;;;;;;;5059729;28;20346;-77
2022/12/22 09:44:26;;;;;;;104.43;31.02;;;;;;;;;;5057105;28;20037;-76
2022/12/22 09:46:56;;;;;;;117.28;32.88;;;;;;;;;;5053502;28;20044;-77
2022/12/22 09:49:22;;;;;;;131.63;35.28;;;;;;;;;;5036403;28;20049;-78
2022/12/22 09:51:52;;;;;;;135.20;36.75;;;;;;;;;;5036437;28;20371;-77
2022/12/22 09:54:17;;;;;;;109.65;33.20;;;;;;;;;;5051373;28;20036;-79
2022/12/22 09:56:43;;;;;;;107.85;32.03;;;;;;;;;;5034168;28;20165;-78
2022/12/22 09:59:13;;;;;;;129.82;38.45;;;;;;;;;;5052635;28;20052;-78
2022/12/22 10:02:06;;;;;;;113.60;33.50;;;;;;;;;;5023248;28;20287;-78
2022/12/22 10:04:48;;;;;;;100.25;31.35;;;;;;;;;;5018975;28;20116;-78
2022/12/22 10:07:30;;;;;;;106.25;32.85;;;;;;;;;;5019817;28;20116;-78
2022/12/22 10:09:57;;;;;;;118.57;34.05;;;;;;;;;;5018463;28;20449;-79
2022/12/22 10:12:23;;;;;;;115.38;36.92;;;;;;;;;;5052223;28;20052;-80
2022/12/22 10:14:50;;;;;;;107.22;33.40;;;;;;;;;;5032922;28;20040;-78
2022/12/22 10:17:19;;;;;;;107.80;31.67;;;;;;;;;;5018587;28;20099;-76
2022/12/22 10:20:29;;;;;;;125.30;37.85;;;;;;;;;;5052303;28;20134;-77
2022/12/22 10:23:26;;;;;;;121.50;36.80;;;;;;;;;;5036014;28;20092;-77
2022/12/22 10:25:55;;;;;;;113.45;36.10;;;;;;;;;;5019320;28;20127;-79
2022/12/22 10:28:32;;;;;;;126.35;38.72;;;;;;;;;;5057594;28;20090;-78
2022/12/22 10:34:58;;;;;;;148.95;45.38;;;;;;;;;;5075177;28;20063;-79
2022/12/22 10:37:36;;;;;;;133.27;41.63;;;;;;;;;;5076529;28;20507;-79
2022/12/22 10:40:16;;;;;;;122.15;39.20;;;;;;;;;;5041359;28;20032;-78
2022/12/22 10:42:49;;;;;;;110.50;33.97;;;;;;;;;;5057786;28;20108;-78
2022/12/22 10:45:19;;;;;;;110.10;35.42;;;;;;;;;;5075121;28;20440;-78
2022/12/22 10:47:50;;;;;;;128.43;38.55;;;;;;;;;;5040209;28;20059;-78
2022/12/22 10:50:15;;;;;;;125.43;34.65;;;;;;;;;;5060588;28;20028;-78
2022/12/22 10:52:41;;;;;;;143.77;36.85;;;;;;;;;;5066632;28;20044;-79
2022/12/22 10:55:13;;;;;;;113.72;35.28;;;;;;;;;;5037053;28;20025;-81
2022/12/22 10:57:38;;;;;;;111.70;33.75;;;;;;;;;;5066231;28;20060;-79
2022/12/22 11:00:27;;;;;;;119.72;37.05;;;;;;;;;;5066177;28;20063;-79
2022/12/22 11:02:57;;;;;;;112.35;35.10;;;;;;;;;;5065135;28;20044;-78
2022/12/22 11:05:23;;;;;;;110.63;34.70;;;;;;;;;;5053147;28;20072;-77
2022/12/22 11:07:52;;;;;;;114.68;35.30;;;;;;;;;;5019797;28;20510;-78
2022/12/22 11:10:19;;;;;;;108.63;34.75;;;;;;;;;;5068381;28;20087;-77
2022/12/22 11:13:09;;;;;;;119.03;36.35;;;;;;;;;;5049260;28;20039;-78
2022/12/22 11:15:38;;;;;;;111.25;34.92;;;;;;;;;;5059592;28;20103;-78
2022/12/22 11:18:29;;;;;;;115.32;34.80;;;;;;;;;;5074192;28;20071;-78
2022/12/22 11:21:19;;;;;;;108.40;34.83;;;;;;;;;;5052682;28;20516;-77
2022/12/22 11:24:09;;;;;;;104.80;32.95;;;;;;;;;;5069860;28;20119;-79
2022/12/22 11:26:53;;;;;;;106.43;32.00;;;;;;;;;;5074077;28;20464;-78
2022/12/22 11:29:37;;;;;;;104.65;33.42;;;;;;;;;;5052515;28;20076;-79
2022/12/22 11:32:32;;;;;;;103.40;33.70;;;;;;;;;;5071615;28;20029;-77
2022/12/22 11:35:24;;;;;;;104.72;33.00;;;;;;;;;;5053444;28;20222;-78
2022/12/22 11:37:55;;;;;;;105.47;30.92;;;;;;;;;;5018960;28;20020;-75
2022/12/22 11:40:36;;;;;;;97.28;33.03;;;;;;;;;;5022038;28;20126;-78
2022/12/22 11:43:20;;;;;;;104.03;35.95;;;;;;;;;;5065969;28;20403;-77
2022/12/22 11:46:05;;;;;;;88.93;31.20;;;;;;;;;;5053421;28;20041;-76
2022/12/22 11:48:49;;;;;;;106.00;33.97;;;;;;;;;;5053925;28;20369;-78
2022/12/22 11:51:43;;;;;;;91.63;28.27;;;;;;;;;;5073807;28;20432;-78
2022/12/22 11:54:37;;;;;;;87.85;27.88;;;;;;;;;;5065842;28;20052;-78
2022/12/22 11:57:14;;;;;;;83.45;26.88;;;;;;;;;;5050672;28;20110;-78
2022/12/22 12:00:12;;;;;;;95.45;29.70;;;;;;;;;;5068890;28;20048;-78
2022/12/22 12:02:41;;;;;;;82.03;26.25;;;;;;;;;;5053982;28;20087;-79
2022/12/22 12:05:31;;;;;;;87.53;27.58;;;;;;;;;;5052632;28;20037;-79
2022/12/22 12:08:07;;;;;;;81.15;26.55;;;;;;;;;;5071121;28;20035;-79
2022/12/22 12:10:50;;;;;;;81.68;23.08;;;;;;;;;;5053747;28;20460;-78
2022/12/22 12:13:31;;;;;;;75.97;25.10;;;;;;;;;;5071972;28;20033;-78
2022/12/22 12:16:16;;;;;;;86.00;29.15;;;;;;;;;;5053922;28;20032;-78
2022/12/22 12:18:54;;;;;;;88.25;27.55;;;;;;;;;;5039344;28;20438;-77
2022/12/22 12:21:40;;;;;;;74.82;25.73;;;;;;;;;;5054124;28;20051;-78
2022/12/22 12:24:35;;;;;;;79.93;26.92;;;;;;;;;;5072659;28;20413;-77
2022/12/22 12:27:15;;;;;;;87.28;27.48;;;;;;;;;;5043113;28;20313;-77
2022/12/22 12:30:02;;;;;;;86.80;28.45;;;;;;;;;;5018545;28;20136;-78
2022/12/22 12:32:40;;;;;;;82.05;26.55;;;;;;;;;;5038879;28;20114;-77
2022/12/22 12:35:28;;;;;;;69.65;24.35;;;;;;;;;;5019985;28;20024;-78
2022/12/22 12:37:56;;;;;;;82.28;26.95;;;;;;;;;;5053526;28;20364;-78
2022/12/22 12:40:38;;;;;;;70.10;24.52;;;;;;;;;;5052510;28;20036;-78
2022/12/22 12:43:03;;;;;;;81.75;27.85;;;;;;;;;;5051054;28;20504;-78
2022/12/22 12:45:38;;;;;;;74.82;25.75;;;;;;;;;;5052075;28;20151;-78
2022/12/22 12:48:22;;;;;;;82.13;27.60;;;;;;;;;;5070855;28;20031;-78
2022/12/22 12:50:50;;;;;;;78.82;27.70;;;;;;;;;;5067544;28;20361;-77
2022/12/22 12:53:17;;;;;;;72.60;26.08;;;;;;;;;;5050900;28;20064;-78
2022/12/22 12:55:48;;;;;;;92.72;30.30;;;;;;;;;;5068424;28;20043;-77
2022/12/22 12:58:34;;;;;;;89.65;32.72;;;;;;;;;;5067739;28;20446;-78
2022/12/22 13:00:59;;;;;;;79.82;28.88;;;;;;;;;;5068784;28;20028;-76
2022/12/22 13:03:27;;;;;;;67.07;24.08;;;;;;;;;;5017700;28;20146;-77
2022/12/22 13:06:00;;;;;;;73.70;26.42;;;;;;;;;;5051493;28;20060;-75
2022/12/22 13:08:29;;;;;;;87.47;31.42;;;;;;;;;;5053300;28;20032;-76
2022/12/22 13:10:54;;;;;;;90.05;32.35;;;;;;;;;;5056474;28;20380;-76
2022/12/22 13:13:20;;;;;;;67.32;22.40;;;;;;;;;;5075952;28;20032;-76
2022/12/22 13:15:45;;;;;;;61.05;22.08;;;;;;;;;;5075973;28;20035;-77
2022/12/22 13:18:23;;;;;;;71.45;25.00;;;;;;;;;;5057717;28;20032;-76
2022/12/22 13:21:11;;;;;;;61.70;21.45;;;;;;;;;;5075285;28;20423;-77
2022/12/22 13:23:42;;;;;;;59.40;21.40;;;;;;;;;;5075954;28;20024;-77
2022/12/22 13:26:18;;;;;;;63.08;22.88;;;;;;;;;;5058671;28;20040;-77
2022/12/22 13:28:53;;;;;;;76.40;23.88;;;;;;;;;;5082621;28;20425;-77
2022/12/22 13:31:19;;;;;;;63.05;22.20;;;;;;;;;;5061075;28;20059;-77
2022/12/22 13:33:45;;;;;;;63.85;22.25;;;;;;;;;;5078459;28;20456;-77
2022/12/22 13:36:21;;;;;;;69.15;24.30;;;;;;;;;;5077780;28;20043;-77
2022/12/22 13:38:47;;;;;;;58.60;21.55;;;;;;;;;;5061520;28;20059;-78
2022/12/22 13:41:16;;;;;;;63.58;22.65;;;;;;;;;;5061445;28;20090;-77
2022/12/22 13:43:43;;;;;;;69.57;26.08;;;;;;;;;;5062581;28;20445;-76
2022/12/22 13:46:09;;;;;;;72.00;27.08;;;;;;;;;;5060844;28;20735;-77
2022/12/22 13:48:45;;;;;;;65.68;25.65;;;;;;;;;;5077368;28;20075;-78
2022/12/22 13:51:18;;;;;;;71.78;24.27;;;;;;;;;;5077041;28;20028;-77
2022/12/22 13:53:49;;;;;;;66.50;22.55;;;;;;;;;;5053632;28;20031;-77
2022/12/22 13:56:26;;;;;;;72.50;24.13;;;;;;;;;;5057359;28;20156;-77
2022/12/22 13:58:57;;;;;;;70.15;23.65;;;;;;;;;;5057621;28;20442;-76
2022/12/22 14:01:23;;;;;;;69.28;25.83;;;;;;;;;;5075481;28;20422;-77
2022/12/22 14:04:00;;;;;;;67.63;24.25;;;;;;;;;;5076300;28;20051;-76
2022/12/22 14:06:31;;;;;;;81.80;24.38;;;;;;;;;;5058890;28;20078;-77
2022/12/22 14:09:10;;;;;;;65.90;23.38;;;;;;;;;;5076320;28;20044;-77
2022/12/22 14:11:35;;;;;;;71.00;25.67;;;;;;;;;;5075293;28;20032;-77
2022/12/22 14:14:06;;;;;;;78.13;29.55;;;;;;;;;;5075964;28;20025;-76
2022/12/22 14:16:31;;;;;;;74.13;26.70;;;;;;;;;;5076376;28;20036;-78
2022/12/22 14:18:58;;;;;;;76.78;27.58;;;;;;;;;;5074905;28;20039;-77
2022/12/22 14:21:23;;;;;;;67.95;23.17;;;;;;;;;;5075161;28;20051;-77
2022/12/22 14:23:49;;;;;;;79.07;25.65;;;;;;;;;;5058267;28;20434;-77
2022/12/22 14:26:18;;;;;;;71.88;23.92;;;;;;;;;;5057627;28;20059;-76
2022/12/22 14:28:49;;;;;;;82.38;26.70;;;;;;;;;;5055164;28;20436;-76
2022/12/22 14:31:15;;;;;;;76.97;26.63;;;;;;;;;;5041940;28;20040;-77
2022/12/22 14:33:50;;;;;;;81.68;26.02;;;;;;;;;;5041371;28;20366;-77
2022/12/22 14:36:15;;;;;;;94.60;28.65;;;;;;;;;;5041205;28;20033;-76
2022/12/22 14:38:46;;;;;;;96.82;29.52;;;;;;;;;;5076199;28;20451;-77
2022/12/22 14:44:04;;;;;;;104.75;31.55;;;;;;;;;;5075513;28;20035;-77
2022/12/22 14:46:31;;;;;;;88.45;28.50;;;;;;;;;;5041255;28;20025;-77
2022/12/22 14:48:57;;;;;;;94.22;28.77;;;;;;;;;;5041098;28;20036;-78
2022/12/22 14:51:22;;;;;;;88.30;28.45;;;;;;;;;;5057469;28;20031;-77
2022/12/22 14:53:53;;;;;;;92.63;28.38;;;;;;;;;;5054436;28;20032;-77
2022/12/22 14:56:18;;;;;;;94.55;29.20;;;;;;;;;;5037116;28;20021;-77
2022/12/22 14:58:44;;;;;;;91.70;29.60;;;;;;;;;;5042103;28;20076;-76
2022/12/22 15:01:25;;;;;;;92.60;31.33;;;;;;;;;;5019302;28;20048;-77
2022/12/22 15:04:03;;;;;;;;;;;;;;;;;;5018839;28;20025;-76
2022/12/22 15:06:28;;;;;;;101.68;28.23;;;;;;;;;;5034987;28;19913;-76
2022/12/22 15:09:10;;;;;;;127.25;33.67;;;;;;;;;;5035004;28;20175;-77
2022/12/22 15:11:38;;;;;;;98.57;32.72;;;;;;;;;;5034785;28;20034;-77
2022/12/22 15:14:03;;;;;;;114.45;36.97;;;;;;;;;;5034072;28;20116;-76
2022/12/22 15:16:28;;;;;;;133.68;42.53;;;;;;;;;;5035442;28;20057;-77
2022/12/22 15:18:54;;;;;;;126.93;41.30;;;;;;;;;;5017498;28;20052;-77
2022/12/22 15:21:19;;;;;;;127.53;42.35;;;;;;;;;;5016801;28;20017;-76
2022/12/22 15:23:45;;;;;;;139.63;46.80;;;;;;;;;;5017137;28;20025;-76
2022/12/22 15:26:11;;;;;;;131.63;44.70;;;;;;;;;;5017063;28;20370;-76
2022/12/22 15:28:36;;;;;;;140.00;46.60;;;;;;;;;;5034794;28;20045;-76
2022/12/22 15:31:03;;;;;;;134.18;43.25;;;;;;;;;;5058837;28;20032;-77
2022/12/22 15:33:29;;;;;;;145.10;47.35;;;;;;;;;;5056336;28;20169;-77
2022/12/22 15:35:54;;;;;;;157.93;46.85;;;;;;;;;;5056328;28;20115;-77
2022/12/22 15:38:21;;;;;;;150.98;43.85;;;;;;;;;;5056526;28;20021;-77
2022/12/22 15:40:47;;;;;;;145.23;44.78;;;;;;;;;;5074887;28;20024;-77
2022/12/22 15:43:15;;;;;;;150.48;47.65;;;;;;;;;;5040257;28;20431;-77
2022/12/22 15:45:41;;;;;;;153.68;40.70;;;;;;;;;;5057030;28;20032;-77
2022/12/22 15:48:09;;;;;;;122.93;39.03;;;;;;;;;;5039587;28;20028;-77
2022/12/22 15:50:36;;;;;;;206.50;41.28;;;;;;;;;;5040108;28;20120;-77
2022/12/22 15:53:02;;;;;;;133.30;39.88;;;;;;;;;;5056526;28;20357;-77
2022/12/22 15:55:28;;;;;;;143.27;43.00;;;;;;;;;;5023253;28;20040;-77
2022/12/22 15:57:55;;;;;;;146.43;46.35;;;;;;;;;;5056576;28;20119;-77
2022/12/22 16:00:21;;;;;;;148.30;45.83;;;;;;;;;;5056447;28;20449;-79
2022/12/22 16:02:46;;;;;;;149.50;43.33;;;;;;;;;;5074083;28;20081;-79
2022/12/22 16:05:12;;;;;;;125.57;39.45;;;;;;;;;;5056349;28;20460;-78
2022/12/22 16:07:38;;;;;;;148.48;45.15;;;;;;;;;;5074356;28;20032;-78
2022/12/22 16:10:04;;;;;;;141.10;45.45;;;;;;;;;;5054339;28;20429;-77
2022/12/22 16:12:30;;;;;;;140.65;41.97;;;;;;;;;;5033855;28;20030;-78
2022/12/22 16:14:55;;;;;;;146.80;39.90;;;;;;;;;;5016705;28;20033;-77
2022/12/22 16:17:24;;;;;;;160.23;41.67;;;;;;;;;;5032863;28;20033;-78
2022/12/22 16:19:50;;;;;;;147.57;40.67;;;;;;;;;;5034291;28;20060;-78
2022/12/22 16:22:17;;;;;;;159.00;39.22;;;;;;;;;;5034130;28;20442;-77
2022/12/22 16:24:44;;;;;;;173.35;38.95;;;;;;;;;;5016669;28;20029;-78
2022/12/22 16:27:12;;;;;;;141.93;40.15;;;;;;;;;;5034229;28;20080;-77
2022/12/22 16:29:39;;;;;;;171.05;45.10;;;;;;;;;;5046665;28;20041;-78
2022/12/22 16:32:24;;;;;;;211.45;42.47;;;;;;;;;;5053706;28;20424;-78
2022/12/22 16:34:49;;;;;;;233.65;35.15;;;;;;;;;;5036928;28;20386;-77
2022/12/22 16:37:15;;;;;;;209.90;40.00;;;;;;;;;;5054017;28;20025;-77
2022/12/22 16:39:40;;;;;;;161.27;43.42;;;;;;;;;;5019243;28;20029;-78
2022/12/22 16:42:13;;;;;;;203.95;38.55;;;;;;;;;;5053941;28;20033;-77
2022/12/22 16:44:40;;;;;;;162.75;47.00;;;;;;;;;;5053630;28;20021;-76
2022/12/22 16:47:05;;;;;;;160.80;41.65;;;;;;;;;;5040098;28;20331;-78
2022/12/22 16:49:31;;;;;;;174.52;45.55;;;;;;;;;;5040017;28;20044;-76
2022/12/22 16:51:56;;;;;;;202.13;53.17;;;;;;;;;;5057874;28;20401;-77
2022/12/22 16:54:21;;;;;;;186.85;58.95;;;;;;;;;;5040057;28;20029;-77
2022/12/22 16:56:50;;;;;;;266.17;81.97;;;;;;;;;;5040072;28;20029;-77
2022/12/22 16:59:16;;;;;;;211.13;59.85;;;;;;;;;;5057615;28;20439;-77
2022/12/22 17:01:45;;;;;;;228.52;60.10;;;;;;;;;;5057394;28;20095;-77
2022/12/22 17:04:13;;;;;;;228.82;70.43;;;;;;;;;;5039849;28;20420;-78
2022/12/22 17:06:39;;;;;;;222.73;54.90;;;;;;;;;;5039878;28;20041;-79
2022/12/22 17:09:07;;;;;;;193.07;54.83;;;;;;;;;;5022904;28;20037;-78
2022/12/22 17:11:33;;;;;;;205.75;55.58;;;;;;;;;;5039682;28;20131;-78
2022/12/22 17:14:04;;;;;;;197.60;47.38;;;;;;;;;;5090075;28;20024;-78
2022/12/22 17:16:30;;;;;;;224.63;42.38;;;;;;;;;;5097520;28;20071;-78
2022/12/22 17:18:55;;;;;;;274.00;40.08;;;;;;;;;;5097781;28;20111;-77
2022/12/22 17:21:21;;;;;;;202.00;40.38;;;;;;;;;;5079543;28;20419;-78
2022/12/22 17:23:51;;;;;;;218.30;48.90;;;;;;;;;;5097287;28;20024;-78
2022/12/22 17:26:18;;;;;;;163.40;48.45;;;;;;;;;;5097494;28;20119;-78
2022/12/22 17:28:44;;;;;;;152.90;47.72;;;;;;;;;;5056087;28;20047;-78
2022/12/22 17:31:13;;;;;;;188.10;48.70;;;;;;;;;;5076754;28;20033;-79
2022/12/22 17:33:39;;;;;;;159.95;44.78;;;;;;;;;;5076900;28;20712;-78
2022/12/22 17:36:04;;;;;;;178.80;54.03;;;;;;;;;;5077341;28;20346;-77
2022/12/22 17:38:30;;;;;;;191.88;57.40;;;;;;;;;;5058851;28;20032;-77
2022/12/22 17:40:56;;;;;;;188.32;52.70;;;;;;;;;;5077290;28;20046;-76
2022/12/22 17:43:21;;;;;;;213.10;57.00;;;;;;;;;;5058960;28;20020;-77
2022/12/22 17:45:47;;;;;;;226.93;58.95;;;;;;;;;;5042152;28;20033;-76
2022/12/22 17:48:13;;;;;;;199.15;63.70;;;;;;;;;;5058980;28;20453;-76
2022/12/22 17:50:39;;;;;;;251.38;59.70;;;;;;;;;;5076662;28;20028;-78
2022/12/22 17:53:05;;;;;;;240.95;68.30;;;;;;;;;;5059120;28;20028;-78
2022/12/22 17:55:30;;;;;;;219.45;63.75;;;;;;;;;;5059149;28;20115;-78
2022/12/22 17:57:56;;;;;;;206.15;61.97;;;;;;;;;;5058070;28;20037;-77
2022/12/22 18:00:22;;;;;;;226.80;72.13;;;;;;;;;;5041597;28;20442;-76
2022/12/22 18:02:48;;;;;;;232.23;83.57;;;;;;;;;;5058415;28;20060;-79
2022/12/22 18:05:14;;;;;;;250.15;82.40;;;;;;;;;;5076583;28;20580;-78
2022/12/22 18:07:40;;;;;;;277.38;84.65;;;;;;;;;;5058573;28;20028;-78
2022/12/22 18:10:07;;;;;;;257.45;83.28;;;;;;;;;;5076497;28;20036;-79